Time;durP1;ratioP1;P1;durP2;ratioP2;P2;SDS_P1;SDS_P2;PMS_P1;PMS_P2;Temp;Humidity;BMP_temperature;BMP_pressure;BME280_temperature;BME280_humidity;BME280_pressure;Samples;Min_cycle;Max_cycle;Signal;HPM_P1;HPM_P2
2023/04/13 00:00:47;;;;;;;1.50;1.40;;;;;;;7.68;73.88;98235.31;4456228;32;33636;-81
2023/04/13 00:03:17;;;;;;;1.62;1.02;;;;;;;7.66;77.11;98237.94;4470117;32;34554;-80
2023/04/13 00:05:45;;;;;;;1.65;1.25;;;;;;;7.92;76.24;98234.03;4470026;32;35031;-81
2023/04/13 00:08:15;;;;;;;1.87;1.77;;;;;;;7.78;76.58;98227.38;4469984;32;34431;-81
2023/04/13 00:10:44;;;;;;;0.70;0.70;;;;;;;7.69;75.42;98224.91;4470181;32;33372;-80
2023/04/13 00:13:13;;;;;;;0.50;0.50;;;;;;;7.66;72.94;98229.28;4470005;32;33865;-81
2023/04/13 00:15:42;;;;;;;0.73;0.73;;;;;;;7.73;71.89;98223.13;4469954;32;35505;-80
2023/04/13 00:18:11;;;;;;;1.05;1.02;;;;;;;7.71;73.10;98223.16;4456041;32;34346;-81
2023/04/13 00:20:40;;;;;;;3.58;2.87;;;;;;;7.59;71.90;98225.97;4469913;32;32907;-80
2023/04/13 00:23:09;;;;;;;0.60;0.60;;;;;;;7.62;71.21;98223.31;4470089;32;33946;-80
2023/04/13 00:25:37;;;;;;;0.50;0.50;;;;;;;7.58;71.84;98225.09;4469550;32;35433;-80
2023/04/13 00:28:05;;;;;;;0.60;0.60;;;;;;;7.60;72.50;98228.50;4469128;32;35354;-81
2023/04/13 00:30:33;;;;;;;0.65;0.65;;;;;;;7.83;70.97;98214.31;4469808;32;33846;-81
2023/04/13 00:33:03;;;;;;;1.25;1.25;;;;;;;7.72;69.57;98221.41;4470037;32;33158;-80
2023/04/13 00:35:32;;;;;;;2.08;1.98;;;;;;;7.61;70.33;98216.44;4455610;32;35894;-81
2023/04/13 00:38:01;;;;;;;1.95;1.83;;;;;;;7.70;66.26;98216.25;4469718;32;34445;-80
2023/04/13 00:40:30;;;;;;;0.93;0.93;;;;;;;7.62;66.35;98214.69;4469618;32;32555;-80
2023/04/13 00:42:59;;;;;;;0.70;0.70;;;;;;;7.54;69.06;98212.22;4469845;32;34654;-80
2023/04/13 00:45:28;;;;;;;1.58;1.48;;;;;;;7.95;64.96;98213.22;4469536;32;34680;-80
2023/04/13 00:47:56;;;;;;;1.23;1.15;;;;;;;7.81;70.83;98217.81;4455428;32;34412;-80
2023/04/13 00:50:24;;;;;;;0.50;0.50;;;;;;;7.88;72.08;98216.81;4469473;32;33629;-80
2023/04/13 00:52:53;;;;;;;0.40;0.40;;;;;;;7.56;73.34;98215.66;4469288;32;34584;-80
2023/04/13 00:55:21;;;;;;;1.80;1.67;;;;;;;7.65;76.17;98219.81;4469291;32;35026;-81
2023/04/13 00:57:51;;;;;;;0.57;0.57;;;;;;;7.52;74.33;98220.03;4455431;32;34504;-80
2023/04/13 01:00:20;;;;;;;12.60;4.12;;;;;;;7.48;75.01;98212.31;4469490;32;33432;-81
2023/04/13 01:02:51;;;;;;;0.70;0.70;;;;;;;7.76;73.80;98208.41;4469303;32;33821;-81
2023/04/13 01:05:20;;;;;;;0.60;0.60;;;;;;;7.28;75.22;98213.50;4469172;32;35253;-81
2023/04/13 01:08:07;;;;;;;0.50;0.50;;;;;;;7.97;67.54;98216.66;4469095;32;34784;-81
2023/04/13 01:10:45;;;;;;;0.85;0.85;;;;;;;7.52;73.13;98211.41;4469184;32;33440;-81
2023/04/13 01:13:14;;;;;;;1.75;1.62;;;;;;;7.33;74.52;98214.28;4455482;32;33911;-81
2023/04/13 01:15:53;;;;;;;0.85;0.85;;;;;;;7.38;76.53;98212.47;4469281;32;35042;-80
2023/04/13 01:18:23;;;;;;;0.50;0.50;;;;;;;7.13;75.93;98211.13;4455119;32;35035;-80
2023/04/13 01:20:53;;;;;;;1.83;1.73;;;;;;;7.07;76.37;98211.25;4455203;32;32918;-80
2023/04/13 01:23:59;;;;;;;2.17;1.17;;;;;;;7.03;75.67;98200.06;4469040;32;33793;-81
2023/04/13 01:26:37;;;;;;;1.00;1.00;;;;;;;7.51;74.14;98197.59;4458084;32;36081;-81
2023/04/13 01:29:06;;;;;;;0.50;0.50;;;;;;;7.64;69.48;98198.25;4455152;32;34364;-80
2023/04/13 01:31:34;;;;;;;1.35;1.25;;;;;;;7.35;74.88;98196.97;4454997;32;33365;-81
2023/04/13 01:34:02;;;;;;;0.50;0.50;;;;;;;7.36;72.71;98203.88;4454971;32;33951;-80
2023/04/13 01:36:32;;;;;;;0.40;0.40;;;;;;;7.25;74.83;98205.78;4468964;32;35037;-80
2023/04/13 01:39:00;;;;;;;0.60;0.60;;;;;;;7.33;74.99;98205.66;4468697;32;34863;-81
2023/04/13 01:41:29;;;;;;;0.62;0.62;;;;;;;7.30;73.82;98206.56;4471043;32;34437;-81
2023/04/13 01:43:58;;;;;;;1.48;1.00;;;;;;;7.08;76.48;98211.22;4471068;32;33769;-81
2023/04/13 01:46:27;;;;;;;0.50;0.50;;;;;;;7.18;74.07;98209.34;4471352;32;34997;-80
2023/04/13 01:48:57;;;;;;;0.70;0.68;;;;;;;6.96;76.93;98209.66;4471154;32;35143;-81
2023/04/13 01:51:31;;;;;;;0.60;0.60;;;;;;;7.23;73.02;98217.87;4457303;32;33559;-80
2023/04/13 01:54:15;;;;;;;2.58;1.45;;;;;;;7.06;75.05;98212.09;4457474;32;34588;-80
2023/04/13 01:56:44;;;;;;;1.35;1.25;;;;;;;7.11;74.29;98213.78;4444167;32;34574;-81
2023/04/13 01:59:12;;;;;;;0.50;0.50;;;;;;;7.11;78.47;98212.91;4457394;32;35093;-80
2023/04/13 02:01:41;;;;;;;1.10;1.10;;;;;;;7.00;78.71;98215.66;4457664;32;33407;-81
2023/04/13 02:04:10;;;;;;;0.40;0.40;;;;;;;7.32;78.62;98209.13;4471094;32;33980;-80
2023/04/13 02:06:39;;;;;;;0.75;0.75;;;;;;;7.74;69.06;98209.28;4470959;32;34940;-81
2023/04/13 02:09:08;;;;;;;0.73;0.50;;;;;;;7.71;68.23;98205.03;4457168;32;34434;-80
2023/04/13 02:11:37;;;;;;;0.60;0.60;;;;;;;7.62;74.15;98209.50;4470939;32;33024;-80
2023/04/13 02:14:05;;;;;;;1.52;1.05;;;;;;;7.79;70.29;98203.13;4470877;32;33458;-81
2023/04/13 02:16:34;;;;;;;0.70;0.70;;;;;;;8.03;71.81;98206.19;4470822;32;35007;-80
2023/04/13 02:19:02;;;;;;;1.35;1.30;;;;;;;7.81;70.20;98203.13;4470907;32;35359;-80
2023/04/13 02:21:30;;;;;;;1.30;1.05;;;;;;;7.89;70.47;98215.97;4470880;32;33496;-81
2023/04/13 02:23:58;;;;;;;1.37;1.27;;;;;;;7.96;72.94;98209.78;4456791;32;33925;-81
2023/04/13 02:26:27;;;;;;;0.60;0.60;;;;;;;7.85;75.10;98212.53;4470697;32;35015;-81
2023/04/13 02:28:55;;;;;;;0.50;0.50;;;;;;;7.74;73.37;98204.94;4470646;32;35398;-81
2023/04/13 02:31:23;;;;;;;1.30;1.17;;;;;;;7.80;73.77;98204.00;4470797;32;34428;-81
2023/04/13 02:33:51;;;;;;;0.70;0.70;;;;;;;7.60;72.32;98194.81;4470854;32;34751;-80
2023/04/13 02:36:20;;;;;;;2.50;1.30;;;;;;;7.96;70.55;98207.19;4470711;32;35010;-81
2023/04/13 02:38:49;;;;;;;0.70;0.70;;;;;;;7.69;73.25;98201.59;4456965;32;35227;-81
2023/04/13 02:41:21;;;;;;;0.73;0.73;;;;;;;7.52;75.46;98203.63;4471001;32;32996;-80
2023/04/13 02:43:51;;;;;;;0.65;0.65;;;;;;;7.39;76.09;98209.03;4470707;32;34668;-81
2023/04/13 02:46:20;;;;;;;0.50;0.50;;;;;;;7.72;71.21;98198.94;4456888;32;35995;-81
2023/04/13 02:48:48;;;;;;;0.40;0.40;;;;;;;7.86;72.83;98203.03;4470818;32;35182;-80
2023/04/13 02:51:16;;;;;;;0.70;0.65;;;;;;;7.52;76.85;98193.28;4470408;32;33508;-81
2023/04/13 02:53:44;;;;;;;0.77;0.68;;;;;;;7.37;77.67;98195.22;4470797;32;33793;-80
2023/04/13 02:56:13;;;;;;;0.80;0.80;;;;;;;7.52;76.08;98194.13;4470846;32;34917;-81
2023/04/13 02:58:43;;;;;;;1.30;1.25;;;;;;;7.41;75.56;98203.78;4470846;32;35237;-81
2023/04/13 03:01:12;;;;;;;0.40;0.40;;;;;;;7.31;74.99;98195.34;4470843;32;34143;-80
2023/04/13 03:03:40;;;;;;;1.55;1.15;;;;;;;7.63;73.92;98206.03;4470666;32;34562;-81
2023/04/13 03:06:10;;;;;;;0.85;0.85;;;;;;;7.88;75.89;98206.47;4470764;32;36709;-80
2023/04/13 03:08:39;;;;;;;0.90;0.85;;;;;;;7.72;74.74;98200.69;4470731;32;34730;-80
2023/04/13 03:11:10;;;;;;;0.60;0.60;;;;;;;7.58;76.69;98199.19;4470500;32;34280;-80
2023/04/13 03:13:39;;;;;;;0.88;0.88;;;;;;;7.79;75.80;98197.94;4470934;32;34769;-81
2023/04/13 03:16:10;;;;;;;0.90;0.90;;;;;;;7.67;76.08;98198.16;4470704;32;35860;-81
2023/04/13 03:18:38;;;;;;;2.60;2.00;;;;;;;7.89;74.31;98197.81;4470465;32;34334;-81
2023/04/13 03:21:07;;;;;;;0.93;0.93;;;;;;;7.62;74.42;98194.81;4470767;32;33547;-80
2023/04/13 03:23:35;;;;;;;0.55;0.55;;;;;;;7.66;75.58;98201.66;4470496;32;33952;-81
2023/04/13 03:26:05;;;;;;;0.47;0.45;;;;;;;7.74;70.73;98197.19;4470492;32;35899;-81
2023/04/13 03:28:33;;;;;;;1.17;1.17;;;;;;;7.55;75.86;98199.25;4470313;32;34126;-81
2023/04/13 03:31:02;;;;;;;2.05;1.95;;;;;;;7.89;74.14;98197.81;4456537;32;33434;-81
2023/04/13 03:33:31;;;;;;;1.55;1.45;;;;;;;7.68;73.92;98197.31;4470623;32;33873;-81
2023/04/13 03:36:02;;;;;;;2.42;2.22;;;;;;;7.91;70.04;98198.62;4456606;32;35293;-81
2023/04/13 03:38:31;;;;;;;0.73;0.73;;;;;;;8.03;71.86;98190.62;4470593;32;34413;-81
2023/04/13 03:40:59;;;;;;;0.60;0.60;;;;;;;7.99;71.66;98196.72;4456432;32;34130;-80
2023/04/13 03:43:28;;;;;;;1.40;1.30;;;;;;;7.76;72.93;98187.66;4470608;32;34035;-80
2023/04/13 03:45:56;;;;;;;0.60;0.60;;;;;;;7.83;73.70;98188.38;4456709;32;35928;-80
2023/04/13 03:48:25;;;;;;;25.73;15.48;;;;;;;8.14;68.97;98193.00;4456328;32;35297;-81
2023/04/13 03:50:53;;;;;;;0.60;0.60;;;;;;;8.08;63.50;98187.94;4470463;32;33697;-80
2023/04/13 03:53:22;;;;;;;1.00;0.98;;;;;;;8.08;61.76;98183.62;4470542;32;34708;-81
2023/04/13 03:55:52;;;;;;;1.17;1.15;;;;;;;7.92;68.18;98188.25;4456610;32;33886;-80
2023/04/13 03:58:20;;;;;;;0.52;0.52;;;;;;;7.87;64.88;98184.00;4470248;32;34095;-81
2023/04/13 04:00:49;;;;;;;0.62;0.62;;;;;;;7.77;67.66;98181.59;4456553;32;33435;-81
2023/04/13 04:03:21;;;;;;;0.85;0.82;;;;;;;7.52;68.66;98188.09;4469401;32;34596;-80
2023/04/13 04:05:50;;;;;;;0.93;0.93;;;;;;;7.31;71.48;98178.94;4456032;32;33669;-81
2023/04/13 04:08:19;;;;;;;0.82;0.82;;;;;;;7.09;74.14;98188.78;4470168;32;34390;-81
2023/04/13 04:10:47;;;;;;;1.08;1.08;;;;;;;7.01;72.07;98189.75;4470306;32;34506;-81
2023/04/13 04:13:15;;;;;;;0.82;0.82;;;;;;;6.69;74.79;98191.94;4470157;32;33853;-81
2023/04/13 04:15:44;;;;;;;0.50;0.50;;;;;;;6.71;73.53;98192.78;4470203;32;35053;-80
2023/04/13 04:18:13;;;;;;;2.28;2.08;;;;;;;6.43;77.51;98198.31;4498691;31;34331;-85
2023/04/13 04:20:41;;;;;;;0.90;0.90;;;;;;;6.82;73.88;98198.66;4487293;31;33070;-82
2023/04/13 04:23:12;;;;;;;1.35;1.25;;;;;;;6.78;75.59;98190.09;4501560;31;33776;-80
2023/04/13 04:25:42;;;;;;;0.60;0.60;;;;;;;6.37;78.34;98193.19;4502629;31;34862;-83
2023/04/13 04:28:16;;;;;;;1.02;1.02;;;;;;;6.51;78.66;98190.44;4487271;31;34511;-84
2023/04/13 04:30:52;;;;;;;1.10;1.10;;;;;;;6.38;80.48;98200.09;4501130;31;33042;-84
2023/04/13 04:33:21;;;;;;;0.90;0.90;;;;;;;6.66;78.53;98198.00;4501082;31;33792;-87
2023/04/13 04:35:50;;;;;;;0.68;0.68;;;;;;;6.51;78.94;98201.66;4474486;31;34299;-80
2023/04/13 04:38:23;;;;;;;1.73;1.50;;;;;;;6.76;76.20;98198.72;4487114;31;34371;-86
2023/04/13 04:40:56;;;;;;;0.93;0.93;;;;;;;6.45;80.99;98202.56;4487636;31;33379;-85
2023/04/13 04:43:26;;;;;;;0.70;0.70;;;;;;;6.60;77.08;98200.66;4487936;31;33926;-86
2023/04/13 04:45:56;;;;;;;0.75;0.75;;;;;;;6.77;75.90;98208.22;4501030;31;34959;-85
2023/04/13 04:48:25;;;;;;;1.98;1.87;;;;;;;7.16;74.52;98208.50;4501279;31;34449;-85
2023/04/13 04:50:56;;;;;;;0.55;0.55;;;;;;;7.59;68.91;98220.78;4486945;31;33919;-81
2023/04/13 04:53:26;;;;;;;2.25;2.15;;;;;;;7.89;64.53;98213.38;4501083;31;33767;-83
2023/04/13 04:55:54;;;;;;;0.70;0.70;;;;;;;8.07;68.23;98205.22;4501104;31;35054;-86
2023/04/13 04:58:24;;;;;;;0.50;0.50;;;;;;;7.53;74.31;98205.31;4501006;31;34468;-86
2023/04/13 05:00:52;;;;;;;0.55;0.55;;;;;;;7.71;71.45;98199.84;4501023;31;33977;-84
2023/04/13 05:03:20;;;;;;;0.70;0.70;;;;;;;7.40;75.29;98204.69;4500775;31;34748;-84
2023/04/13 05:05:49;;;;;;;1.15;1.08;;;;;;;8.08;66.84;98209.53;4500729;31;35870;-80
2023/04/13 05:08:18;;;;;;;2.78;2.55;;;;;;;8.18;59.12;98205.03;4486942;31;34462;-86
2023/04/13 05:10:46;;;;;;;0.60;0.60;;;;;;;8.74;59.39;98199.59;4486753;31;33414;-86
2023/04/13 05:13:15;;;;;;;1.20;1.20;;;;;;;9.03;57.69;98209.31;4500538;31;33861;-86
2023/04/13 05:15:43;;;;;;;1.45;1.35;;;;;;;8.77;57.29;98214.22;4502959;31;35690;-87
2023/04/13 05:18:14;;;;;;;0.85;0.85;;;;;;;9.18;54.75;98210.72;4474329;32;34328;-87
2023/04/13 05:20:43;;;;;;;0.85;0.80;;;;;;;9.93;51.63;98210.59;4487175;32;33395;-80
2023/04/13 05:23:11;;;;;;;0.77;0.77;;;;;;;9.85;52.50;98217.75;4487029;32;33900;-87
2023/04/13 05:25:39;;;;;;;0.60;0.60;;;;;;;9.89;51.48;98219.38;4486984;32;35522;-87
2023/04/13 05:28:09;;;;;;;2.15;2.05;;;;;;;10.42;50.87;98211.88;4489041;31;34440;-87
2023/04/13 05:30:38;;;;;;;1.08;0.88;;;;;;;10.43;52.63;98225.78;4488349;31;33778;-87
2023/04/13 05:33:08;;;;;;;1.12;1.12;;;;;;;10.59;53.31;98218.37;4494724;31;34746;-88
2023/04/13 05:35:38;;;;;;;1.98;1.87;;;;;;;11.25;49.17;98216.38;4471062;32;35031;-86
2023/04/13 05:38:06;;;;;;;0.50;0.50;;;;;;;11.30;47.81;98211.03;4471396;32;35217;-85
2023/04/13 05:40:34;;;;;;;0.73;0.73;;;;;;;11.47;49.81;98211.34;4471098;32;34271;-85
2023/04/13 05:43:03;;;;;;;1.10;1.05;;;;;;;11.63;45.97;98210.81;4471230;32;33972;-86
2023/04/13 05:45:32;;;;;;;0.60;0.60;;;;;;;12.22;45.36;98215.78;4457305;32;34818;-84
2023/04/13 05:48:00;;;;;;;0.55;0.55;;;;;;;12.13;45.87;98208.28;4470559;32;34076;-84
2023/04/13 05:50:29;;;;;;;0.90;0.90;;;;;;;11.82;44.63;98206.69;4456709;32;32917;-84
2023/04/13 05:52:57;;;;;;;0.55;0.55;;;;;;;11.90;44.67;98204.69;4470986;32;33832;-83
2023/04/13 05:55:26;;;;;;;1.40;1.30;;;;;;;12.11;44.74;98210.09;4457406;32;35808;-81
2023/04/13 05:57:55;;;;;;;1.42;1.33;;;;;;;11.91;44.38;98206.41;4457279;32;35193;-81
2023/04/13 06:00:24;;;;;;;0.82;0.82;;;;;;;11.87;46.31;98215.19;4457037;32;33065;-84
2023/04/13 06:02:54;;;;;;;0.30;0.30;;;;;;;11.96;46.79;98208.84;4471327;32;33158;-84
2023/04/13 06:05:27;;;;;;;1.02;1.02;;;;;;;11.47;45.38;98202.66;4457589;32;34987;-81
2023/04/13 06:07:56;;;;;;;2.65;2.22;;;;;;;11.89;43.94;98202.13;4457157;32;35516;-84
2023/04/13 06:10:24;;;;;;;0.95;0.95;;;;;;;12.33;42.75;98202.34;4456926;32;32358;-85
2023/04/13 06:12:52;;;;;;;0.62;0.62;;;;;;;11.97;43.57;98204.50;4470865;32;33840;-84
2023/04/13 06:15:20;;;;;;;1.05;1.05;;;;;;;12.74;42.19;98205.19;4470754;32;35181;-84
2023/04/13 06:17:54;;;;;;;1.67;1.58;;;;;;;12.89;41.81;98207.19;4470873;32;35565;-84
2023/04/13 06:20:23;;;;;;;1.10;0.80;;;;;;;13.59;39.89;98196.66;4471125;32;33040;-84
2023/04/13 06:22:51;;;;;;;1.02;0.98;;;;;;;12.97;43.05;98204.31;4456961;32;34593;-84
2023/04/13 06:25:19;;;;;;;0.70;0.70;;;;;;;12.64;43.58;98212.50;4470114;32;35504;-84
2023/04/13 06:27:48;;;;;;;2.30;1.40;;;;;;;12.85;41.28;98210.84;4470967;32;34394;-85
2023/04/13 06:30:17;;;;;;;0.82;0.82;;;;;;;12.63;42.61;98205.56;4457187;32;34141;-82
2023/04/13 06:32:46;;;;;;;1.02;1.02;;;;;;;13.09;42.33;98218.66;4457266;32;33852;-83
2023/04/13 06:35:16;;;;;;;2.03;1.60;;;;;;;13.53;40.54;98215.22;4456632;32;34620;-82
2023/04/13 06:37:47;;;;;;;0.50;0.50;;;;;;;13.19;40.11;98221.75;4457332;32;35041;-83
2023/04/13 06:40:16;;;;;;;2.22;1.95;;;;;;;12.93;40.95;98217.53;4471013;32;33838;-82
2023/04/13 06:42:45;;;;;;;1.60;1.25;;;;;;;12.98;40.82;98220.84;4456777;32;33904;-81
2023/04/13 06:45:20;;;;;;;12.80;3.20;;;;;;;13.27;40.12;98219.69;4456843;32;34185;-83
2023/04/13 06:47:48;;;;;;;0.50;0.50;;;;;;;12.93;41.34;98222.78;4470509;32;35090;-83
2023/04/13 06:50:16;;;;;;;2.55;2.08;;;;;;;12.76;41.99;98226.00;4470642;32;34326;-83
2023/04/13 06:52:46;;;;;;;0.90;0.90;;;;;;;13.39;39.86;98226.22;4470886;32;34719;-84
2023/04/13 06:55:14;;;;;;;1.10;1.05;;;;;;;13.37;40.55;98228.91;4456895;32;35810;-81
2023/04/13 06:57:43;;;;;;;0.68;0.68;;;;;;;13.53;40.87;98228.28;4470884;32;34328;-83
2023/04/13 07:00:15;;;;;;;0.85;0.85;;;;;;;13.31;40.09;98226.53;4456680;32;33272;-80
2023/04/13 07:02:57;;;;;;;1.75;1.52;;;;;;;13.16;40.92;98230.56;4470843;32;33875;-83
2023/04/13 07:05:26;;;;;;;1.20;1.10;;;;;;;13.37;40.69;98239.34;4470583;32;35062;-80
2023/04/13 07:07:55;;;;;;;1.92;1.23;;;;;;;13.72;40.27;98239.69;4470802;32;34422;-83
2023/04/13 07:10:23;;;;;;;0.75;0.75;;;;;;;14.11;40.37;98232.84;4470802;32;33456;-86
2023/04/13 07:12:52;;;;;;;1.95;1.67;;;;;;;13.45;40.44;98234.69;4470410;32;34043;-79
2023/04/13 07:15:20;;;;;;;1.85;1.75;;;;;;;13.60;40.31;98243.66;4458057;32;35467;-79
2023/04/13 07:17:51;;;;;;;0.85;0.85;;;;;;;14.09;39.40;98240.78;4472345;31;35038;-85
2023/04/13 07:20:21;;;;;;;0.47;0.47;;;;;;;14.01;39.84;98240.22;4501709;31;33581;-84
2023/04/13 07:22:50;;;;;;;0.93;0.93;;;;;;;14.13;39.33;98244.94;4497329;31;34733;-79
2023/04/13 07:25:18;;;;;;;1.62;1.52;;;;;;;13.76;40.93;98245.66;4469950;32;35882;-83
2023/04/13 07:27:47;;;;;;;0.45;0.45;;;;;;;13.68;40.51;98251.22;4470325;32;34612;-83
2023/04/13 07:30:15;;;;;;;0.75;0.75;;;;;;;14.40;39.67;98249.94;4470357;32;33619;-79
2023/04/13 07:32:44;;;;;;;0.50;0.50;;;;;;;13.89;40.88;98243.38;4470385;32;33485;-83
2023/04/13 07:35:13;;;;;;;0.80;0.80;;;;;;;14.28;41.20;98245.22;4456549;32;34955;-83
2023/04/13 07:37:41;;;;;;;0.40;0.40;;;;;;;14.83;39.47;98242.78;4469006;32;34593;-86
2023/04/13 07:40:12;;;;;;;0.40;0.40;;;;;;;14.22;40.37;98252.44;4470201;32;34247;-81
2023/04/13 07:42:43;;;;;;;0.77;0.77;;;;;;;13.91;42.18;98259.88;4456689;32;33915;-85
2023/04/13 07:45:11;;;;;;;1.23;1.15;;;;;;;14.59;39.75;98253.47;4470094;32;34294;-82
2023/04/13 07:47:40;;;;;;;1.25;0.77;;;;;;;14.18;41.54;98247.37;4470177;32;34436;-80
2023/04/13 07:50:08;;;;;;;0.70;0.70;;;;;;;13.59;43.75;98260.28;4470105;32;33573;-83
2023/04/13 07:52:36;;;;;;;0.40;0.40;;;;;;;14.08;41.29;98252.16;4470043;32;34780;-82
2023/04/13 07:55:06;;;;;;;1.45;1.23;;;;;;;13.98;41.87;98256.94;4456324;32;34924;-83
2023/04/13 07:57:35;;;;;;;0.82;0.82;;;;;;;13.84;41.69;98260.12;4470015;32;34425;-84
2023/04/13 08:00:05;;;;;;;2.05;1.65;;;;;;;15.06;40.37;98251.38;4470096;32;34144;-81
2023/04/13 08:02:40;;;;;;;0.80;0.80;;;;;;;14.57;40.46;98250.00;4456945;32;33907;-78
2023/04/13 08:05:11;;;;;;;2.12;1.95;;;;;;;14.35;41.04;98249.28;4485768;32;34048;-77
2023/04/13 08:07:39;;;;;;;1.05;0.95;;;;;;;14.65;41.91;98256.72;4485794;32;35263;-82
2023/04/13 08:10:09;;;;;;;0.65;0.65;;;;;;;14.69;41.47;98248.66;4485375;32;33474;-80
2023/04/13 08:12:38;;;;;;;1.00;0.98;;;;;;;14.25;42.32;98245.34;4485541;32;34759;-84
2023/04/13 08:15:09;;;;;;;1.15;1.05;;;;;;;14.63;39.97;98246.31;4485151;32;35013;-82
2023/04/13 08:17:37;;;;;;;0.82;0.82;;;;;;;14.85;40.33;98250.59;4485497;32;34549;-84
2023/04/13 08:20:09;;;;;;;0.90;0.90;;;;;;;14.73;39.68;98249.38;4485165;32;33388;-81
2023/04/13 08:22:40;;;;;;;0.45;0.45;;;;;;;14.23;40.11;98248.03;4458916;32;34103;-82
2023/04/13 08:25:09;;;;;;;1.10;1.05;;;;;;;13.65;41.43;98248.72;4470721;32;35101;-81
2023/04/13 08:27:37;;;;;;;0.43;0.43;;;;;;;13.70;42.20;98249.38;4485304;32;35121;-81
2023/04/13 08:30:07;;;;;;;0.77;0.77;;;;;;;14.05;42.00;98252.28;4485053;32;34349;-81
2023/04/13 08:32:35;;;;;;;0.30;0.30;;;;;;;14.74;40.14;98251.91;4471379;32;34205;-81
2023/04/13 08:35:09;;;;;;;0.43;0.43;;;;;;;14.54;39.94;98244.94;4485536;32;35994;-80
2023/04/13 08:37:39;;;;;;;0.47;0.47;;;;;;;15.08;38.17;98246.91;4485577;32;34574;-81
2023/04/13 08:40:11;;;;;;;1.27;1.17;;;;;;;15.15;38.54;98246.53;4485540;32;33411;-79
2023/04/13 08:42:40;;;;;;;0.47;0.47;;;;;;;14.63;39.47;98251.56;4471567;32;34867;-80
2023/04/13 08:45:08;;;;;;;2.03;1.33;;;;;;;15.67;37.38;98253.69;4485449;32;35815;-80
2023/04/13 08:47:40;;;;;;;0.60;0.60;;;;;;;16.00;37.03;98247.69;4471047;32;34515;-81
2023/04/13 08:50:09;;;;;;;1.00;0.95;;;;;;;16.33;37.24;98235.56;4472540;32;33921;-82
2023/04/13 08:52:38;;;;;;;1.23;1.15;;;;;;;17.09;35.12;98242.94;4458901;32;34146;-83
2023/04/13 08:55:06;;;;;;;2.37;2.17;;;;;;;17.47;32.71;98235.56;4487088;32;34907;-83
2023/04/13 08:57:35;;;;;;;0.52;0.52;;;;;;;17.58;34.45;98234.94;4487374;32;34464;-81
2023/04/13 09:00:11;;;;;;;1.00;0.82;;;;;;;18.43;32.28;98237.91;4473602;32;33856;-82
2023/04/13 09:02:41;;;;;;;1.33;1.23;;;;;;;18.99;31.63;98227.44;4487443;32;34008;-81
2023/04/13 09:05:16;;;;;;;1.33;1.23;;;;;;;18.26;31.74;98236.28;4474396;32;35734;-83
2023/04/13 09:07:52;;;;;;;0.30;0.30;;;;;;;18.89;31.41;98229.84;4487088;32;34372;-83
2023/04/13 09:10:20;;;;;;;3.22;2.05;;;;;;;18.46;31.24;98241.22;4473842;32;33256;-84
2023/04/13 09:12:51;;;;;;;0.85;0.85;;;;;;;17.79;33.82;98227.59;4487204;32;33538;-86
2023/04/13 09:15:20;;;;;;;1.37;1.27;;;;;;;17.53;33.85;98235.19;4487338;32;34582;-83
2023/04/13 09:17:50;;;;;;;2.33;1.60;;;;;;;16.75;34.45;98226.34;4487284;32;35828;-85
2023/04/13 09:20:21;;;;;;;1.17;1.15;;;;;;;16.46;34.83;98232.19;4473196;32;33404;-85
2023/04/13 09:22:50;;;;;;;0.85;0.80;;;;;;;16.63;35.06;98238.38;4486724;32;34005;-81
2023/04/13 09:25:21;;;;;;;1.85;1.70;;;;;;;16.80;33.86;98234.81;4486357;32;35978;-81
2023/04/13 09:27:50;;;;;;;0.40;0.40;;;;;;;17.06;33.71;98241.31;4487014;32;34332;-80
2023/04/13 09:30:23;;;;;;;2.47;2.28;;;;;;;16.82;36.01;98235.59;4485415;32;33296;-78
2023/04/13 09:33:06;;;;;;;1.80;1.37;;;;;;;17.07;34.25;98239.56;4472797;32;33647;-83
2023/04/13 09:35:35;;;;;;;0.70;0.70;;;;;;;17.84;34.20;98233.41;4473488;32;35016;-86
2023/04/13 09:38:06;;;;;;;3.08;1.92;;;;;;;17.70;34.32;98233.37;4486869;32;34204;-82
2023/04/13 09:40:37;;;;;;;1.25;1.15;;;;;;;18.33;33.09;98230.53;4487172;32;34147;-82
2023/04/13 09:43:08;;;;;;;0.75;0.75;;;;;;;18.34;32.21;98231.41;4473437;32;33814;-81
2023/04/13 09:45:38;;;;;;;1.20;1.10;;;;;;;17.72;33.61;98234.16;4486594;32;34597;-81
2023/04/13 09:48:21;;;;;;;0.93;0.82;;;;;;;17.34;33.55;98242.44;4472868;32;34614;-82
2023/04/13 09:51:05;;;;;;;0.35;0.35;;;;;;;17.22;34.81;98233.44;4472704;32;33492;-82
2023/04/13 09:53:46;;;;;;;1.40;1.15;;;;;;;17.78;33.95;98233.78;4473253;32;34694;-83
2023/04/13 09:56:15;;;;;;;1.05;1.00;;;;;;;17.85;33.77;98229.00;4486779;32;34969;-82
2023/04/13 09:58:46;;;;;;;1.00;0.88;;;;;;;18.07;33.89;98225.97;4472300;32;34515;-81
2023/04/13 10:01:14;;;;;;;1.17;1.15;;;;;;;18.28;33.19;98222.09;4471904;32;33744;-82
2023/04/13 10:03:44;;;;;;;0.62;0.62;;;;;;;18.06;32.53;98225.16;4486714;32;33225;-81
2023/04/13 10:06:13;;;;;;;1.92;1.20;;;;;;;17.75;33.96;98228.69;4486562;32;34649;-81
2023/04/13 10:08:41;;;;;;;0.52;0.52;;;;;;;17.78;34.43;98228.53;4486688;32;34325;-81
2023/04/13 10:11:12;;;;;;;2.55;2.22;;;;;;;18.05;33.89;98235.75;4486492;32;33454;-82
2023/04/13 10:13:48;;;;;;;0.45;0.45;;;;;;;17.80;34.38;98237.16;4486685;32;35402;-80
2023/04/13 10:16:35;;;;;;;0.62;0.62;;;;;;;17.87;34.00;98235.91;4472592;32;35806;-81
2023/04/13 10:19:09;;;;;;;4.37;2.62;;;;;;;16.80;35.81;98230.44;4486668;32;34535;-80
2023/04/13 10:21:45;;;;;;;2.20;1.33;;;;;;;16.87;35.59;98238.84;4486579;32;33621;-81
2023/04/13 10:24:14;;;;;;;2.00;1.80;;;;;;;16.92;37.46;98231.56;4472308;32;33829;-81
2023/04/13 10:26:43;;;;;;;1.95;1.37;;;;;;;17.93;34.41;98226.78;4486503;32;35880;-78
2023/04/13 10:29:13;;;;;;;1.20;0.95;;;;;;;18.24;33.19;98225.00;4472517;32;34585;-83
2023/04/13 10:31:46;;;;;;;1.33;0.45;;;;;;;18.09;33.92;98221.47;4486384;32;33431;-82
2023/04/13 10:34:27;;;;;;;0.40;0.40;;;;;;;18.13;33.37;98220.38;4486532;32;34802;-82
2023/04/13 10:37:02;;;;;;;0.95;0.93;;;;;;;17.76;33.74;98235.66;4472472;32;35713;-82
2023/04/13 10:39:33;;;;;;;1.67;1.58;;;;;;;17.03;36.12;98228.38;4473174;32;34312;-80
2023/04/13 10:42:07;;;;;;;1.50;1.40;;;;;;;17.92;33.45;98220.69;4486484;32;34264;-81
2023/04/13 10:44:45;;;;;;;0.70;0.70;;;;;;;17.07;35.90;98234.31;4459534;32;33980;-80
2023/04/13 10:47:15;;;;;;;0.60;0.60;;;;;;;17.22;34.89;98225.53;4472236;32;35026;-80
2023/04/13 10:49:47;;;;;;;1.10;1.00;;;;;;;17.34;34.95;98224.84;4486230;32;35151;-80
2023/04/13 10:52:15;;;;;;;9.82;5.35;;;;;;;17.72;34.33;98219.19;4472223;32;33628;-81
2023/04/13 10:54:44;;;;;;;1.42;1.33;;;;;;;18.33;34.58;98208.63;4486230;32;34109;-83
2023/04/13 10:57:12;;;;;;;1.25;1.15;;;;;;;18.26;34.73;98212.56;4486247;32;35143;-79
2023/04/13 10:59:59;;;;;;;0.62;0.62;;;;;;;17.98;34.22;98207.16;4486287;32;34455;-78
2023/04/13 11:02:30;;;;;;;1.45;1.25;;;;;;;18.70;35.62;98207.19;4473414;32;33593;-83
2023/04/13 11:04:59;;;;;;;0.68;0.68;;;;;;;18.67;33.13;98188.94;4472299;32;33990;-82
2023/04/13 11:07:28;;;;;;;1.12;1.08;;;;;;;19.22;32.84;98196.94;4472304;32;35147;-81
2023/04/13 11:09:57;;;;;;;0.45;0.45;;;;;;;19.05;32.19;98206.81;4472463;32;34446;-82
2023/04/13 11:12:31;;;;;;;0.75;0.75;;;;;;;19.69;32.87;98203.56;4486214;32;34413;-82
2023/04/13 11:14:59;;;;;;;1.08;1.05;;;;;;;19.12;32.57;98202.81;4486156;32;34114;-83
2023/04/13 11:17:27;;;;;;;0.52;0.52;;;;;;;19.45;33.23;98193.69;4417318;32;2212881;-84
2023/04/13 11:20:00;;;;;;;0.80;0.80;;;;;;;19.49;31.62;98200.44;4486146;32;35192;-81
2023/04/13 11:22:34;;;;;;;0.77;0.77;;;;;;;19.30;32.30;98192.88;4471930;32;32794;-81
2023/04/13 11:25:07;;;;;;;0.52;0.52;;;;;;;20.46;30.14;98196.59;4471902;32;33632;-82
2023/04/13 11:27:36;;;;;;;0.40;0.40;;;;;;;20.29;30.08;98185.50;4472156;32;34373;-82
2023/04/13 11:30:09;;;;;;;1.67;1.58;;;;;;;20.16;29.34;98183.69;4472995;32;35146;-83
2023/04/13 11:32:41;;;;;;;0.50;0.50;;;;;;;19.63;30.11;98188.13;4471921;32;33449;-83
2023/04/13 11:35:13;;;;;;;1.10;0.77;;;;;;;19.92;29.77;98185.38;4470602;32;33937;-81
2023/04/13 11:37:44;;;;;;;0.32;0.32;;;;;;;20.31;29.94;98181.78;4470746;32;34361;-80
2023/04/13 11:40:26;;;;;;;19.80;1.17;;;;;;;19.83;30.95;98174.47;4470821;32;34781;-81
2023/04/13 11:42:59;;;;;;;0.65;0.65;;;;;;;19.10;31.44;98178.34;4470427;32;33660;-79
2023/04/13 11:45:29;;;;;;;1.85;0.50;;;;;;;18.51;32.25;98180.28;4465964;32;33772;-81
2023/04/13 11:48:04;;;;;;;1.65;1.55;;;;;;;18.79;32.03;98178.56;4466069;32;34923;-81
2023/04/13 11:50:33;;;;;;;0.30;0.30;;;;;;;18.21;33.20;98173.31;4484894;32;34311;-82